createdAt,value
2018-12-06T00:00:43.203Z,6.42
2018-12-06T00:03:10.665Z,6.95
2018-12-06T00:05:38.164Z,5.78
2018-12-06T00:08:15.435Z,6.60
2018-12-06T00:10:43.937Z,7.03
2018-12-06T00:13:11.425Z,5.70
2018-12-06T00:15:38.913Z,6.53
2018-12-06T00:18:06.417Z,7.10
2018-12-06T00:20:33.880Z,6.00
2018-12-06T00:23:01.342Z,6.83
2018-12-06T00:25:28.815Z,6.50
2018-12-06T00:27:56.267Z,6.65
2018-12-06T00:30:34.367Z,7.65
2018-12-06T00:33:02.041Z,6.03
2018-12-06T00:35:29.525Z,6.47
2018-12-06T00:37:56.985Z,6.12
2018-12-06T00:40:24.479Z,5.78
2018-12-06T00:42:51.947Z,5.95
2018-12-06T00:45:19.455Z,6.37
2018-12-06T00:47:46.918Z,6.08
2018-12-06T00:50:14.395Z,7.08
2018-12-06T00:52:41.881Z,5.50
2018-12-06T00:55:09.370Z,6.47
2018-12-06T00:57:36.812Z,5.53
2018-12-06T01:00:06.679Z,6.03
2018-12-06T01:02:34.178Z,5.30
2018-12-06T01:05:01.650Z,6.65
2018-12-06T01:07:29.142Z,5.87
2018-12-06T01:09:56.616Z,6.28
2018-12-06T01:12:24.395Z,7.53
2018-12-06T01:14:51.870Z,6.08
2018-12-06T01:17:19.357Z,6.20
2018-12-06T01:19:46.824Z,6.22
2018-12-06T01:22:14.335Z,5.22
2018-12-06T01:24:41.807Z,5.70
2018-12-06T01:27:09.274Z,8.03
2018-12-06T01:29:37.632Z,8.05
2018-12-06T01:32:05.098Z,5.58
2018-12-06T01:34:32.620Z,6.80
2018-12-06T01:37:00.164Z,5.92
2018-12-06T01:39:27.622Z,6.55
2018-12-06T01:41:55.092Z,5.30
2018-12-06T01:44:22.582Z,5.40
2018-12-06T01:46:50.143Z,5.40
2018-12-06T01:49:17.604Z,5.97
2018-12-06T01:51:45.087Z,5.78
2018-12-06T01:54:12.651Z,7.37
2018-12-06T01:56:40.941Z,6.42
2018-12-06T01:59:08.483Z,5.20
2018-12-06T02:01:35.960Z,6.45
2018-12-06T02:04:03.497Z,5.22
2018-12-06T02:06:30.989Z,5.85
2018-12-06T02:08:58.437Z,6.15
2018-12-06T02:11:25.971Z,5.50
2018-12-06T02:13:53.509Z,5.45
2018-12-06T02:16:20.997Z,5.80
2018-12-06T02:18:48.471Z,5.58
2018-12-06T02:21:15.953Z,5.35
2018-12-06T02:23:43.435Z,5.97
2018-12-06T02:26:10.933Z,5.50
2018-12-06T02:28:38.415Z,15.10
2018-12-06T02:31:05.919Z,5.85
2018-12-06T02:33:33.379Z,5.22
2018-12-06T02:36:00.846Z,5.35
2018-12-06T02:38:28.400Z,5.55
2018-12-06T02:40:55.877Z,20.27
2018-12-06T02:43:23.370Z,6.62
2018-12-06T02:45:50.841Z,6.10
2018-12-06T02:48:18.434Z,5.70
2018-12-06T02:50:45.906Z,5.75
2018-12-06T02:53:13.599Z,5.30
2018-12-06T02:55:41.043Z,5.80
2018-12-06T02:58:08.604Z,10.15
2018-12-06T03:00:36.100Z,6.03
2018-12-06T03:03:03.578Z,6.37
2018-12-06T03:05:31.063Z,5.92
2018-12-06T03:07:58.648Z,5.40
2018-12-06T03:10:26.079Z,5.67
2018-12-06T03:12:53.567Z,5.67
2018-12-06T03:15:21.019Z,5.80
2018-12-06T03:17:48.533Z,5.67
2018-12-06T03:20:16.004Z,5.42
2018-12-06T03:22:43.535Z,5.10
2018-12-06T03:25:11.029Z,5.40
2018-12-06T03:27:38.551Z,5.05
2018-12-06T03:30:06.516Z,5.20
2018-12-06T03:32:34.005Z,5.40
2018-12-06T03:35:01.550Z,5.50
2018-12-06T03:37:29.054Z,5.08
2018-12-06T03:39:56.526Z,5.50
2018-12-06T03:42:24.183Z,4.85
2018-12-06T03:44:51.888Z,4.87
2018-12-06T03:47:19.376Z,4.67
2018-12-06T03:49:46.852Z,5.40
2018-12-06T03:52:14.303Z,5.17
2018-12-06T03:54:41.797Z,4.90
2018-12-06T03:57:09.283Z,6.37
2018-12-06T03:59:36.819Z,5.65
2018-12-06T04:02:04.290Z,4.80
2018-12-06T04:04:31.825Z,7.05
2018-12-06T04:06:59.273Z,5.75
2018-12-06T04:09:26.851Z,6.03
2018-12-06T04:11:54.304Z,5.22
2018-12-06T04:14:21.778Z,22.05
2018-12-06T04:16:49.249Z,5.58
2018-12-06T04:19:16.714Z,5.03
2018-12-06T04:21:44.163Z,5.90
2018-12-06T04:24:11.729Z,4.95
2018-12-06T04:26:39.247Z,5.92
2018-12-06T04:29:06.711Z,6.60
2018-12-06T04:31:35.185Z,5.20
2018-12-06T04:34:02.639Z,5.37
2018-12-06T04:36:30.101Z,5.22
2018-12-06T04:38:57.586Z,4.87
2018-12-06T04:41:25.068Z,5.35
2018-12-06T04:43:52.549Z,5.17
2018-12-06T04:46:20.016Z,5.35
2018-12-06T04:48:47.491Z,4.28
2018-12-06T04:51:15.000Z,4.83
2018-12-06T04:53:42.460Z,4.67
2018-12-06T04:56:09.921Z,5.33
2018-12-06T04:58:37.387Z,5.00
2018-12-06T05:01:04.908Z,5.35
2018-12-06T05:03:32.366Z,4.53
2018-12-06T05:05:59.837Z,4.72
2018-12-06T05:08:27.270Z,5.42
2018-12-06T05:10:54.761Z,5.08
2018-12-06T05:13:22.199Z,4.58
2018-12-06T05:15:49.658Z,5.40
2018-12-06T05:18:18.687Z,6.15
2018-12-06T05:20:46.183Z,4.58
2018-12-06T05:23:13.639Z,5.10
2018-12-06T05:25:41.074Z,5.70
2018-12-06T05:28:08.551Z,4.95
2018-12-06T05:30:36.038Z,4.97
2018-12-06T05:33:03.546Z,5.58
2018-12-06T05:35:31.056Z,5.92
2018-12-06T05:37:58.533Z,5.53
2018-12-06T05:40:26.088Z,4.97
2018-12-06T05:42:53.519Z,5.00
2018-12-06T05:45:21.000Z,5.78
2018-12-06T05:47:48.585Z,5.55
2018-12-06T05:50:16.143Z,4.72
2018-12-06T05:52:43.586Z,5.80
2018-12-06T05:55:11.070Z,5.00
2018-12-06T05:57:38.546Z,5.58
2018-12-06T06:00:07.399Z,5.37
2018-12-06T06:02:34.875Z,5.28
2018-12-06T06:05:02.349Z,4.95
2018-12-06T06:07:29.821Z,4.62
2018-12-06T06:09:57.257Z,7.00
2018-12-06T06:12:24.736Z,6.37
2018-12-06T06:14:52.209Z,5.75
2018-12-06T06:17:19.687Z,5.37
2018-12-06T06:19:47.161Z,5.22
2018-12-06T06:22:14.792Z,5.60
2018-12-06T06:24:42.321Z,5.35
2018-12-06T06:27:09.873Z,6.22
2018-12-06T06:29:37.324Z,5.80
2018-12-06T06:32:04.796Z,9.85
2018-12-06T06:34:32.283Z,6.03
2018-12-06T06:36:59.780Z,6.58
2018-12-06T06:39:27.247Z,5.72
2018-12-06T06:41:54.758Z,5.92
2018-12-06T06:44:22.258Z,6.03
2018-12-06T06:46:49.712Z,5.12
2018-12-06T06:49:17.173Z,5.50
2018-12-06T06:51:44.690Z,6.70
2018-12-06T06:54:12.185Z,6.05
2018-12-06T06:56:39.655Z,5.70
2018-12-06T06:59:07.121Z,6.12
2018-12-06T07:01:34.602Z,6.92
2018-12-06T07:04:02.099Z,7.15
2018-12-06T07:06:29.635Z,5.30
2018-12-06T07:08:57.131Z,5.47
2018-12-06T07:11:24.585Z,5.28
2018-12-06T07:13:52.049Z,5.65
2018-12-06T07:16:19.635Z,5.72
2018-12-06T07:18:47.153Z,5.90
2018-12-06T07:21:14.619Z,5.15
2018-12-06T07:23:42.188Z,5.42
2018-12-06T07:26:09.655Z,5.42
2018-12-06T07:28:37.193Z,4.67
2018-12-06T07:31:04.685Z,4.50
2018-12-06T07:33:32.175Z,4.92
2018-12-06T07:35:59.639Z,5.15
2018-12-06T07:38:27.162Z,4.97
2018-12-06T07:40:54.635Z,5.35
2018-12-06T07:43:22.975Z,4.75
2018-12-06T07:45:52.616Z,4.55
2018-12-06T07:48:20.100Z,4.95
2018-12-06T07:50:47.564Z,4.50
2018-12-06T07:53:15.043Z,5.03
2018-12-06T07:55:42.503Z,4.30
2018-12-06T07:58:10.107Z,4.97
2018-12-06T08:00:37.581Z,4.60
2018-12-06T08:03:05.063Z,4.70
2018-12-06T08:05:32.515Z,5.03
2018-12-06T08:07:59.983Z,5.15
2018-12-06T08:10:27.428Z,4.78
2018-12-06T08:12:54.921Z,4.62
2018-12-06T08:15:22.473Z,5.00
2018-12-06T08:17:49.944Z,4.62
2018-12-06T08:20:17.443Z,5.37
2018-12-06T08:22:44.889Z,5.10
2018-12-06T08:25:12.346Z,4.72
2018-12-06T08:27:39.798Z,6.00
2018-12-06T08:30:07.527Z,4.62
2018-12-06T08:32:34.976Z,4.85
2018-12-06T08:35:02.499Z,4.65
2018-12-06T08:37:30.000Z,4.58
2018-12-06T08:39:57.453Z,4.62
2018-12-06T08:42:24.975Z,7.22
2018-12-06T08:44:52.446Z,4.90
2018-12-06T08:47:19.934Z,5.00
2018-12-06T08:49:47.439Z,4.30
2018-12-06T08:52:14.881Z,4.78
2018-12-06T08:54:42.369Z,5.40
2018-12-06T08:57:09.819Z,4.47
2018-12-06T08:59:37.308Z,5.33
2018-12-06T09:02:04.881Z,4.78
2018-12-06T09:04:32.390Z,4.20
2018-12-06T09:06:59.894Z,4.95
2018-12-06T09:09:27.425Z,4.37
2018-12-06T09:11:54.936Z,5.05
2018-12-06T09:14:23.302Z,5.10
2018-12-06T09:16:50.761Z,4.62
2018-12-06T09:19:18.234Z,4.37
2018-12-06T09:21:45.746Z,4.72
2018-12-06T09:24:13.696Z,4.17
2018-12-06T09:26:41.181Z,4.45
2018-12-06T09:29:08.818Z,4.67
2018-12-06T09:31:36.338Z,4.97
2018-12-06T09:34:05.648Z,4.57
2018-12-06T09:36:33.347Z,5.53
2018-12-06T09:39:00.840Z,4.90
2018-12-06T09:41:28.318Z,4.43
2018-12-06T09:43:55.817Z,4.37
2018-12-06T09:46:23.301Z,4.67
2018-12-06T09:48:50.824Z,4.85
2018-12-06T09:51:18.330Z,4.95
2018-12-06T09:53:45.800Z,5.20
2018-12-06T09:56:13.353Z,5.93
2018-12-06T09:58:40.816Z,5.08
2018-12-06T10:01:10.751Z,4.92
2018-12-06T10:03:38.265Z,4.57
2018-12-06T10:06:05.731Z,4.90
2018-12-06T10:08:33.213Z,5.43
2018-12-06T10:11:00.695Z,4.90
2018-12-06T10:13:28.153Z,6.37
2018-12-06T10:15:55.764Z,5.17
2018-12-06T10:18:23.261Z,5.27
2018-12-06T10:20:50.835Z,4.87
2018-12-06T10:23:18.483Z,4.70
2018-12-06T10:25:45.991Z,4.43
2018-12-06T10:28:13.566Z,5.93
2018-12-06T10:30:41.021Z,5.50
2018-12-06T10:33:08.518Z,4.80
2018-12-06T10:35:35.978Z,5.33
2018-12-06T10:38:03.458Z,6.40
2018-12-06T10:40:31.789Z,5.43
2018-12-06T10:42:59.285Z,4.73
2018-12-06T10:45:27.438Z,5.60
2018-12-06T10:47:55.004Z,4.67
2018-12-06T10:50:22.499Z,5.03
2018-12-06T10:52:49.970Z,5.20
2018-12-06T10:55:17.928Z,4.70
2018-12-06T10:57:45.465Z,4.77
2018-12-06T11:00:14.865Z,5.27
2018-12-06T11:02:48.269Z,5.67
2018-12-06T11:05:15.963Z,5.33
2018-12-06T11:07:43.408Z,4.20
2018-12-06T11:10:10.885Z,5.00
2018-12-06T11:12:38.400Z,5.50
2018-12-06T11:15:06.031Z,4.23
2018-12-06T11:17:33.541Z,4.40
2018-12-06T11:20:01.037Z,5.77
2018-12-06T11:22:28.552Z,4.93
2018-12-06T11:24:56.051Z,4.93
2018-12-06T11:27:23.513Z,5.17
2018-12-06T11:29:50.951Z,5.03
2018-12-06T11:32:18.433Z,5.70
2018-12-06T11:34:45.927Z,5.50
2018-12-06T11:37:13.450Z,5.67
2018-12-06T11:39:40.982Z,5.27
2018-12-06T11:42:08.441Z,5.07
2018-12-06T11:44:35.918Z,5.80
2018-12-06T11:47:03.460Z,4.77
2018-12-06T11:49:30.907Z,4.13
2018-12-06T11:51:58.391Z,5.47
2018-12-06T11:54:25.887Z,5.43
2018-12-06T11:56:53.345Z,5.73
2018-12-06T11:59:20.986Z,4.40
2018-12-06T12:01:48.437Z,5.27
2018-12-06T12:04:16.003Z,4.87
2018-12-06T12:06:43.471Z,4.73
2018-12-06T12:09:11.025Z,5.53
2018-12-06T12:11:39.142Z,5.63
2018-12-06T12:14:06.665Z,5.37
2018-12-06T12:16:34.269Z,4.70
2018-12-06T12:19:01.765Z,5.20
2018-12-06T12:21:29.211Z,4.97
2018-12-06T12:23:56.710Z,5.40
2018-12-06T12:26:24.165Z,5.33
2018-12-06T12:28:51.738Z,5.17
2018-12-06T12:31:19.247Z,5.00
2018-12-06T12:33:46.724Z,6.13
2018-12-06T12:36:14.163Z,5.20
2018-12-06T12:38:41.617Z,5.80
2018-12-06T12:41:09.133Z,5.77
2018-12-06T12:43:36.612Z,7.10
2018-12-06T12:46:04.095Z,5.50
2018-12-06T12:48:31.542Z,5.90
2018-12-06T12:50:58.992Z,4.57
2018-12-06T12:53:26.479Z,5.43
2018-12-06T12:55:53.989Z,6.10
2018-12-06T12:58:21.467Z,5.07
2018-12-06T13:00:49.235Z,6.13
2018-12-06T13:03:16.700Z,6.87
2018-12-06T13:05:44.167Z,6.00
2018-12-06T13:08:11.635Z,5.17
2018-12-06T13:10:39.177Z,6.37
2018-12-06T13:13:06.646Z,5.93
2018-12-06T13:15:34.139Z,5.07
2018-12-06T13:18:01.582Z,5.67
2018-12-06T13:20:29.238Z,5.53
2018-12-06T13:22:56.721Z,5.50
2018-12-06T13:25:24.326Z,5.53
2018-12-06T13:27:51.807Z,5.53
2018-12-06T13:30:19.348Z,5.77
2018-12-06T13:32:46.805Z,6.70
2018-12-06T13:35:14.283Z,6.00
2018-12-06T13:37:41.776Z,5.80
2018-12-06T13:40:09.275Z,5.57
2018-12-06T13:42:36.742Z,6.90
2018-12-06T13:45:04.530Z,6.57
2018-12-06T13:47:31.994Z,7.40
2018-12-06T13:49:59.506Z,6.63
2018-12-06T13:52:26.984Z,5.67
2018-12-06T13:54:55.058Z,6.70
2018-12-06T13:57:22.533Z,6.97
2018-12-06T13:59:50.019Z,6.87
2018-12-06T14:02:17.492Z,6.97
2018-12-06T14:04:45.865Z,7.37
2018-12-06T14:07:13.342Z,6.27
2018-12-06T14:09:40.798Z,5.43
2018-12-06T14:12:08.304Z,6.33
2018-12-06T14:14:35.796Z,6.77
2018-12-06T14:17:03.335Z,6.63
2018-12-06T14:19:30.903Z,5.87
2018-12-06T14:21:58.424Z,6.03
2018-12-06T14:24:25.899Z,5.93
2018-12-06T14:26:53.399Z,6.97
2018-12-06T14:29:20.858Z,7.70
2018-12-06T14:31:48.341Z,7.23
2018-12-06T14:34:15.823Z,7.13
2018-12-06T14:36:43.300Z,6.40
2018-12-06T14:39:11.385Z,6.70
2018-12-06T14:41:38.905Z,6.90
2018-12-06T14:44:06.354Z,8.03
2018-12-06T14:46:33.920Z,11.40
2018-12-06T14:49:01.373Z,8.10
2018-12-06T14:51:28.831Z,8.13
2018-12-06T14:53:56.268Z,6.87
2018-12-06T14:56:23.879Z,7.90
2018-12-06T14:58:51.405Z,7.37
2018-12-06T15:01:18.865Z,7.20
2018-12-06T15:03:46.372Z,6.37
2018-12-06T15:06:13.883Z,7.00
2018-12-06T15:08:41.378Z,6.13
2018-12-06T15:11:08.848Z,7.37
2018-12-06T15:13:36.378Z,6.93
2018-12-06T15:16:03.907Z,7.63
2018-12-06T15:18:31.357Z,6.97
2018-12-06T15:20:58.849Z,8.13
2018-12-06T15:23:26.417Z,7.13
2018-12-06T15:25:53.920Z,7.60
2018-12-06T15:28:21.459Z,6.63
2018-12-06T15:30:48.996Z,6.90
2018-12-06T15:33:16.559Z,7.10
2018-12-06T15:35:44.019Z,8.00
2018-12-06T15:38:11.557Z,7.17
2018-12-06T15:40:39.035Z,7.23
2018-12-06T15:43:06.551Z,7.30
2018-12-06T15:45:34.773Z,8.73
2018-12-06T15:48:02.269Z,7.53
2018-12-06T15:50:29.789Z,9.80
2018-12-06T15:52:57.275Z,8.67
2018-12-06T15:55:24.743Z,8.43
2018-12-06T15:57:52.903Z,9.17
2018-12-06T16:00:20.391Z,8.30
2018-12-06T16:02:47.893Z,7.73
2018-12-06T16:05:15.351Z,8.87
2018-12-06T16:07:42.822Z,8.33
2018-12-06T16:10:10.780Z,10.47
2018-12-06T16:12:38.254Z,9.83
2018-12-06T16:15:06.692Z,10.57
2018-12-06T16:17:34.207Z,9.60
2018-12-06T16:20:01.732Z,10.77
2018-12-06T16:22:29.242Z,10.33
2018-12-06T16:24:56.775Z,10.53
2018-12-06T16:27:24.270Z,12.00
2018-12-06T16:29:51.812Z,12.97
2018-12-06T16:32:19.269Z,12.03
2018-12-06T16:34:46.770Z,11.93
2018-12-06T16:37:14.214Z,11.90
2018-12-06T16:39:41.692Z,13.87
2018-12-06T16:42:09.177Z,11.90
2018-12-06T16:44:36.659Z,11.37
2018-12-06T16:47:04.162Z,13.00
2018-12-06T16:49:32.723Z,12.60
2018-12-06T16:52:00.539Z,12.90
2018-12-06T16:54:28.025Z,13.47
2018-12-06T16:56:55.527Z,14.57
2018-12-06T16:59:22.968Z,13.40
2018-12-06T17:01:50.507Z,13.93
2018-12-06T17:04:18.025Z,13.77
2018-12-06T17:06:45.527Z,15.10
2018-12-06T17:09:13.012Z,14.33
2018-12-06T17:11:40.515Z,14.07
2018-12-06T17:14:07.966Z,14.87
2018-12-06T17:16:35.496Z,16.27
2018-12-06T17:19:03.034Z,14.63
2018-12-06T17:21:30.543Z,13.33
2018-12-06T17:23:58.007Z,14.10
2018-12-06T17:26:25.674Z,15.37
2018-12-06T17:28:53.128Z,14.17
2018-12-06T17:31:20.688Z,13.63
2018-12-06T17:33:48.195Z,14.07
2018-12-06T17:36:15.692Z,14.10
2018-12-06T17:38:43.238Z,14.30
2018-12-06T17:41:10.823Z,15.83
2018-12-06T17:43:38.313Z,14.30
2018-12-06T17:46:05.903Z,13.87
2018-12-06T17:48:33.359Z,14.47
2018-12-06T17:51:00.933Z,14.67
2018-12-06T17:53:28.533Z,13.77
2018-12-06T17:55:56.052Z,14.73
2018-12-06T17:58:23.531Z,14.90
2018-12-06T18:00:51.067Z,15.73
2018-12-06T18:03:18.588Z,13.83
2018-12-06T18:05:46.079Z,14.00
2018-12-06T18:08:13.554Z,17.57
2018-12-06T18:10:41.184Z,14.67
2018-12-06T18:13:08.722Z,15.63
2018-12-06T18:15:36.425Z,15.30
2018-12-06T18:18:03.962Z,15.77
2018-12-06T18:20:31.491Z,15.10
2018-12-06T18:22:59.137Z,16.67
2018-12-06T18:25:26.648Z,14.63
2018-12-06T18:27:54.239Z,15.67
2018-12-06T18:30:21.768Z,16.07
2018-12-06T18:32:49.561Z,15.17
2018-12-06T18:35:17.045Z,16.27
2018-12-06T18:37:44.560Z,15.27
2018-12-06T18:40:12.068Z,13.97
2018-12-06T18:42:40.349Z,15.00
2018-12-06T18:45:07.923Z,14.77
2018-12-06T18:47:35.425Z,13.77
2018-12-06T18:50:02.982Z,15.67
2018-12-06T18:52:30.582Z,14.93
2018-12-06T18:54:58.571Z,13.93
2018-12-06T18:57:26.078Z,14.00
2018-12-06T18:59:53.568Z,15.03
2018-12-06T19:02:21.323Z,16.93
2018-12-06T19:04:48.827Z,14.37
2018-12-06T19:07:16.322Z,15.70
2018-12-06T19:09:43.862Z,15.20
2018-12-06T19:12:11.401Z,15.40
2018-12-06T19:14:38.906Z,15.03
2018-12-06T19:17:06.407Z,15.33
2018-12-06T19:19:33.906Z,16.43
2018-12-06T19:22:01.487Z,16.00
2018-12-06T19:24:29.056Z,18.33
2018-12-06T19:26:56.513Z,17.47
2018-12-06T19:29:23.997Z,17.40
2018-12-06T19:31:51.508Z,19.97
2018-12-06T19:34:19.045Z,19.60
2018-12-06T19:36:46.611Z,16.77
2018-12-06T19:39:14.253Z,16.87
2018-12-06T19:41:41.905Z,16.73
2018-12-06T19:44:09.404Z,16.77
2018-12-06T19:46:36.945Z,17.47
2018-12-06T19:49:04.793Z,17.03
2018-12-06T19:51:32.943Z,15.50
2018-12-06T19:54:00.579Z,15.97
2018-12-06T19:56:28.091Z,16.40
2018-12-06T19:58:55.615Z,16.10
2018-12-06T20:01:23.141Z,15.83
2018-12-06T20:03:50.708Z,15.87
2018-12-06T20:06:18.210Z,15.07
2018-12-06T20:08:47.561Z,15.33
2018-12-06T20:11:15.065Z,16.80
2018-12-06T20:13:42.607Z,15.73
2018-12-06T20:16:10.163Z,16.03
2018-12-06T20:18:37.644Z,15.47
2018-12-06T20:21:06.958Z,15.33
2018-12-06T20:23:34.440Z,16.80
2018-12-06T20:26:01.956Z,16.63
2018-12-06T20:28:29.512Z,16.43
2018-12-06T20:33:30.967Z,17.10
2018-12-06T20:35:58.482Z,15.20
2018-12-06T20:38:26.585Z,15.87
2018-12-06T20:40:56.142Z,16.00
2018-12-06T20:43:23.718Z,16.20
2018-12-06T20:45:51.202Z,17.17
2018-12-06T20:48:18.677Z,17.93
2018-12-06T20:50:49.300Z,17.47
2018-12-06T20:53:15.815Z,18.33
2018-12-06T20:55:43.310Z,18.53
2018-12-06T20:58:14.835Z,18.67
2018-12-06T21:00:40.357Z,18.97
2018-12-06T21:03:07.935Z,20.63
2018-12-06T21:05:35.434Z,20.80
2018-12-06T21:08:02.968Z,21.90
2018-12-06T21:10:30.444Z,21.00
2018-12-06T21:12:57.988Z,20.90
2018-12-06T21:15:25.490Z,20.90
2018-12-06T21:17:53.043Z,21.87
2018-12-06T21:20:21.523Z,21.57
2018-12-06T21:22:49.039Z,24.47
2018-12-06T21:27:50.493Z,23.57
2018-12-06T21:30:17.978Z,21.27
2018-12-06T21:32:45.477Z,19.37
2018-12-06T21:35:13.053Z,19.87
2018-12-06T21:37:40.526Z,20.30
2018-12-06T21:40:08.135Z,19.10
2018-12-06T21:42:35.597Z,18.50
2018-12-06T21:45:03.153Z,16.77
2018-12-06T21:47:30.802Z,17.93
2018-12-06T21:49:58.260Z,17.93
2018-12-06T21:52:25.793Z,18.53
2018-12-06T21:54:54.801Z,17.10
2018-12-06T21:57:22.341Z,18.50
2018-12-06T21:59:49.848Z,19.03
2018-12-06T22:02:23.237Z,19.10
2018-12-06T22:04:50.753Z,18.53
2018-12-06T22:07:18.305Z,20.73
2018-12-06T22:09:45.866Z,19.20
2018-12-06T22:12:13.479Z,19.00
2018-12-06T22:14:41.036Z,19.10
2018-12-06T22:17:08.509Z,19.63
2018-12-06T22:19:35.986Z,19.37
2018-12-06T22:22:03.583Z,18.60
2018-12-06T22:24:31.063Z,20.33
2018-12-06T22:26:58.555Z,20.30
2018-12-06T22:29:26.019Z,19.73
2018-12-06T22:31:53.563Z,19.37
2018-12-06T22:34:21.018Z,19.87
2018-12-06T22:36:48.552Z,20.57
2018-12-06T22:39:16.045Z,17.93
2018-12-06T22:41:43.510Z,18.70
2018-12-06T22:44:10.987Z,19.60
2018-12-06T22:46:38.436Z,18.73
2018-12-06T22:49:05.926Z,19.00
2018-12-06T22:51:33.455Z,20.97
2018-12-06T22:54:00.959Z,22.10
2018-12-06T22:56:28.749Z,20.13
2018-12-06T22:58:56.202Z,18.53
2018-12-06T23:01:29.372Z,20.07
2018-12-06T23:03:56.927Z,19.27
2018-12-06T23:06:24.411Z,18.63
2018-12-06T23:08:51.877Z,17.27
2018-12-06T23:11:19.353Z,17.40
2018-12-06T23:13:46.932Z,17.77
2018-12-06T23:16:14.422Z,18.63
2018-12-06T23:18:41.920Z,18.97
2018-12-06T23:21:09.391Z,18.10
2018-12-06T23:23:36.884Z,17.87
2018-12-06T23:26:04.336Z,17.03
2018-12-06T23:28:31.836Z,18.03
2018-12-06T23:30:59.427Z,16.20
2018-12-06T23:33:32.033Z,16.60
2018-12-06T23:35:56.460Z,17.27
2018-12-06T23:38:24.027Z,17.27
2018-12-06T23:40:51.475Z,16.70
2018-12-06T23:43:19.061Z,16.80
2018-12-06T23:45:46.552Z,16.50
2018-12-06T23:48:14.088Z,18.07
2018-12-06T23:50:41.538Z,18.03
2018-12-06T23:53:09.104Z,18.30
2018-12-06T23:55:36.589Z,17.00
2018-12-06T23:58:04.087Z,16.97
